Huvudsida
METAR-TAF:

METAR-TAF

Flygplatser :

Helsingfors-Vanda flygplats

Helsingfors, Finland

latitud: 60-19N, longitud: 024-58E, höjd: 51 m

Aktuellt väderrapport

Denna rapport gjordes för 14 minuter sedan, klockan 00:50 UTC
Vind 2 kt från ost
Temperatur 0°C
Fuktighet 86%
Tryck 1027 hPa
Sikt 10 km eller mer
Inga moln under 1 500 m eller inga cumulonimbus

METAR: EFHK 210050Z 08002KT CAVOK 00/M02 Q1027 NOSIG

Tid: 04:04 (01:04 UTC)

Väderprognos

Denna rapport gjordes för 1 timme och 36 minuter sedan, klockan 23:28 UTC
Prognos gäller från 21 kl. 00 UTC till 21 kl. 24 UTC
Vind 5 kt från ost/sydost
Sikt 10 km eller mer
Inga moln under 1 500 m eller inga cumulonimbus

TAF: EFHK 202328Z 2100/2124 12005KT CAVOK

Aktuella väderrapporter och prognoser från 4000 flygplatser (METAR- och TAF-rapporter).

De tillgängliga stationerna syns som gula och röda prickar på kartan.

För musen över prickarna för att se namnen på stationerna.

Klicka sedan för att få väderrapporter och prognoser.

För att ändra kartan: Klicka på de gröna knapparna med ett svart kors på för att zooma in; den gröna knappen med ett streck på för att zooma ut; eller på de gröna pilarna för angränsande kartor.


METAR-TAF: